sensor_id;sensor_type;location;lat;lon;timestamp;temperature;humidity
17701;DHT22;8969;48.576;12.580;2023-02-28T00:01:56;-0.70;99.90
17701;DHT22;8969;48.576;12.580;2023-02-28T00:04:24;-0.70;99.90
17701;DHT22;8969;48.576;12.580;2023-02-28T00:06:52;-0.70;99.90
17701;DHT22;8969;48.576;12.580;2023-02-28T00:09:20;-0.70;99.90
17701;DHT22;8969;48.576;12.580;2023-02-28T00:11:48;-0.70;99.90
17701;DHT22;8969;48.576;12.580;2023-02-28T00:14:16;-0.70;99.90
17701;DHT22;8969;48.576;12.580;2023-02-28T00:16:44;-0.70;99.90
17701;DHT22;8969;48.576;12.580;2023-02-28T00:19:14;-0.70;99.90
17701;DHT22;8969;48.576;12.580;2023-02-28T00:21:42;-0.70;99.90
17701;DHT22;8969;48.576;12.580;2023-02-28T00:24:11;-0.60;99.90
17701;DHT22;8969;48.576;12.580;2023-02-28T00:26:39;-0.70;99.90
17701;DHT22;8969;48.576;12.580;2023-02-28T00:29:07;-0.70;99.90
17701;DHT22;8969;48.576;12.580;2023-02-28T00:31:36;-0.60;99.90
17701;DHT22;8969;48.576;12.580;2023-02-28T00:34:05;-0.70;99.90
17701;DHT22;8969;48.576;12.580;2023-02-28T00:36:34;-0.70;99.90
17701;DHT22;8969;48.576;12.580;2023-02-28T00:39:04;-0.70;99.90
17701;DHT22;8969;48.576;12.580;2023-02-28T00:41:32;-0.80;99.90
17701;DHT22;8969;48.576;12.580;2023-02-28T00:44:00;-0.80;99.90
17701;DHT22;8969;48.576;12.580;2023-02-28T00:46:32;-0.80;99.90
17701;DHT22;8969;48.576;12.580;2023-02-28T00:49:01;-0.80;99.90
17701;DHT22;8969;48.576;12.580;2023-02-28T00:51:29;-0.80;99.90
17701;DHT22;8969;48.576;12.580;2023-02-28T00:53:59;-0.80;99.90
17701;DHT22;8969;48.576;12.580;2023-02-28T00:56:27;-0.90;99.90
17701;DHT22;8969;48.576;12.580;2023-02-28T00:58:57;-0.80;99.90
17701;DHT22;8969;48.576;12.580;2023-02-28T01:01:26;-0.80;99.90
17701;DHT22;8969;48.576;12.580;2023-02-28T01:03:54;-0.80;99.90
17701;DHT22;8969;48.576;12.580;2023-02-28T01:06:23;-0.90;99.90
17701;DHT22;8969;48.576;12.580;2023-02-28T01:08:53;-0.80;99.90
17701;DHT22;8969;48.576;12.580;2023-02-28T01:11:23;-0.90;99.90
17701;DHT22;8969;48.576;12.580;2023-02-28T01:13:52;-0.90;99.90
17701;DHT22;8969;48.576;12.580;2023-02-28T01:16:20;-1.00;99.90
17701;DHT22;8969;48.576;12.580;2023-02-28T01:18:48;-1.00;99.90
17701;DHT22;8969;48.576;12.580;2023-02-28T01:21:18;-1.00;99.90
17701;DHT22;8969;48.576;12.580;2023-02-28T01:23:49;-0.90;99.90
17701;DHT22;8969;48.576;12.580;2023-02-28T01:26:19;-1.00;99.90
17701;DHT22;8969;48.576;12.580;2023-02-28T01:28:50;-1.00;99.90
17701;DHT22;8969;48.576;12.580;2023-02-28T01:31:19;-1.00;99.90
17701;DHT22;8969;48.576;12.580;2023-02-28T01:33:48;-1.00;99.90
17701;DHT22;8969;48.576;12.580;2023-02-28T01:36:19;-1.00;99.90
17701;DHT22;8969;48.576;12.580;2023-02-28T01:38:49;-1.00;99.90
17701;DHT22;8969;48.576;12.580;2023-02-28T01:41:22;-1.00;99.90
17701;DHT22;8969;48.576;12.580;2023-02-28T01:44:00;-0.90;99.90
17701;DHT22;8969;48.576;12.580;2023-02-28T01:46:33;-1.00;99.90
17701;DHT22;8969;48.576;12.580;2023-02-28T01:49:08;-1.00;99.90
17701;DHT22;8969;48.576;12.580;2023-02-28T01:51:41;-1.00;99.90
17701;DHT22;8969;48.576;12.580;2023-02-28T01:54:20;-1.00;99.90
17701;DHT22;8969;48.576;12.580;2023-02-28T01:56:53;-1.10;99.90
17701;DHT22;8969;48.576;12.580;2023-02-28T01:59:30;-1.00;99.90
17701;DHT22;8969;48.576;12.580;2023-02-28T02:02:01;-1.00;99.90
17701;DHT22;8969;48.576;12.580;2023-02-28T02:04:35;-1.10;99.90
17701;DHT22;8969;48.576;12.580;2023-02-28T02:07:05;-1.10;99.90
17701;DHT22;8969;48.576;12.580;2023-02-28T02:09:33;-1.10;99.90
17701;DHT22;8969;48.576;12.580;2023-02-28T02:12:07;-1.10;99.90
17701;DHT22;8969;48.576;12.580;2023-02-28T02:14:49;-1.10;99.90
17701;DHT22;8969;48.576;12.580;2023-02-28T02:17:30;-1.20;99.90
17701;DHT22;8969;48.576;12.580;2023-02-28T02:20:33;-1.20;99.90
17701;DHT22;8969;48.576;12.580;2023-02-28T02:23:33;-1.10;99.90
17701;DHT22;8969;48.576;12.580;2023-02-28T02:26:44;-1.10;99.90
17701;DHT22;8969;48.576;12.580;2023-02-28T02:29:35;-1.10;99.90
17701;DHT22;8969;48.576;12.580;2023-02-28T02:35:23;-1.10;99.90
17701;DHT22;8969;48.576;12.580;2023-02-28T02:37:59;-1.10;99.90
17701;DHT22;8969;48.576;12.580;2023-02-28T02:40:33;-1.10;99.90
17701;DHT22;8969;48.576;12.580;2023-02-28T02:43:07;-1.10;99.90
17701;DHT22;8969;48.576;12.580;2023-02-28T02:45:39;-1.10;99.90
17701;DHT22;8969;48.576;12.580;2023-02-28T02:48:12;-1.20;99.90
17701;DHT22;8969;48.576;12.580;2023-02-28T02:50:45;-1.10;99.90
17701;DHT22;8969;48.576;12.580;2023-02-28T02:53:15;-1.10;99.90
17701;DHT22;8969;48.576;12.580;2023-02-28T02:55:46;-1.10;99.90
17701;DHT22;8969;48.576;12.580;2023-02-28T02:58:22;-1.10;99.90
17701;DHT22;8969;48.576;12.580;2023-02-28T03:00:54;-1.10;99.90
17701;DHT22;8969;48.576;12.580;2023-02-28T03:03:26;-1.10;99.90
17701;DHT22;8969;48.576;12.580;2023-02-28T03:05:59;-1.10;99.90
17701;DHT22;8969;48.576;12.580;2023-02-28T03:08:33;-1.10;99.90
17701;DHT22;8969;48.576;12.580;2023-02-28T03:11:03;-1.10;99.90
17701;DHT22;8969;48.576;12.580;2023-02-28T03:13:55;-1.10;99.90
17701;DHT22;8969;48.576;12.580;2023-02-28T03:16:54;-1.10;99.90
17701;DHT22;8969;48.576;12.580;2023-02-28T03:19:37;-1.10;99.90
17701;DHT22;8969;48.576;12.580;2023-02-28T03:22:17;-1.10;99.90
17701;DHT22;8969;48.576;12.580;2023-02-28T03:24:52;-1.10;99.90
17701;DHT22;8969;48.576;12.580;2023-02-28T03:27:26;-1.10;99.90
17701;DHT22;8969;48.576;12.580;2023-02-28T03:30:00;-1.20;99.90
17701;DHT22;8969;48.576;12.580;2023-02-28T03:32:35;-1.20;99.90
17701;DHT22;8969;48.576;12.580;2023-02-28T03:35:09;-1.20;99.90
17701;DHT22;8969;48.576;12.580;2023-02-28T03:37:41;-1.20;99.90
17701;DHT22;8969;48.576;12.580;2023-02-28T03:40:14;-1.20;99.90
17701;DHT22;8969;48.576;12.580;2023-02-28T03:42:47;-1.20;99.90
17701;DHT22;8969;48.576;12.580;2023-02-28T03:45:19;-1.20;99.90
17701;DHT22;8969;48.576;12.580;2023-02-28T03:47:52;-1.10;99.90
17701;DHT22;8969;48.576;12.580;2023-02-28T03:50:23;-1.20;99.90
17701;DHT22;8969;48.576;12.580;2023-02-28T03:52:57;-1.30;99.90
17701;DHT22;8969;48.576;12.580;2023-02-28T03:55:32;-1.20;99.90
17701;DHT22;8969;48.576;12.580;2023-02-28T03:58:05;-1.30;99.90
17701;DHT22;8969;48.576;12.580;2023-02-28T04:00:38;-1.30;99.90
17701;DHT22;8969;48.576;12.580;2023-02-28T04:03:07;-1.20;99.90
17701;DHT22;8969;48.576;12.580;2023-02-28T04:05:47;-1.20;99.90
17701;DHT22;8969;48.576;12.580;2023-02-28T04:08:20;-1.30;99.90
17701;DHT22;8969;48.576;12.580;2023-02-28T04:10:53;-1.30;99.90
17701;DHT22;8969;48.576;12.580;2023-02-28T04:13:23;-1.30;99.90
17701;DHT22;8969;48.576;12.580;2023-02-28T04:15:51;-1.30;99.90
17701;DHT22;8969;48.576;12.580;2023-02-28T04:18:19;-1.20;99.90
17701;DHT22;8969;48.576;12.580;2023-02-28T04:20:47;-1.20;99.90
17701;DHT22;8969;48.576;12.580;2023-02-28T04:23:15;-1.20;99.90
17701;DHT22;8969;48.576;12.580;2023-02-28T04:25:45;-1.20;99.90
17701;DHT22;8969;48.576;12.580;2023-02-28T04:28:14;-1.30;99.90
17701;DHT22;8969;48.576;12.580;2023-02-28T04:30:42;-1.30;99.90
17701;DHT22;8969;48.576;12.580;2023-02-28T04:33:10;-1.30;99.90
17701;DHT22;8969;48.576;12.580;2023-02-28T04:35:38;-1.30;99.90
17701;DHT22;8969;48.576;12.580;2023-02-28T04:38:06;-1.40;99.90
17701;DHT22;8969;48.576;12.580;2023-02-28T04:40:35;-1.40;99.90
17701;DHT22;8969;48.576;12.580;2023-02-28T04:43:04;-1.40;99.90
17701;DHT22;8969;48.576;12.580;2023-02-28T04:45:32;-1.30;99.90
17701;DHT22;8969;48.576;12.580;2023-02-28T04:48:00;-1.30;99.90
17701;DHT22;8969;48.576;12.580;2023-02-28T04:50:28;-1.40;99.90
17701;DHT22;8969;48.576;12.580;2023-02-28T04:52:56;-1.30;99.90
17701;DHT22;8969;48.576;12.580;2023-02-28T04:55:24;-1.30;99.90
17701;DHT22;8969;48.576;12.580;2023-02-28T04:57:53;-1.30;99.90
17701;DHT22;8969;48.576;12.580;2023-02-28T05:00:22;-1.30;99.90
17701;DHT22;8969;48.576;12.580;2023-02-28T05:02:50;-1.40;99.90
17701;DHT22;8969;48.576;12.580;2023-02-28T05:05:18;-1.40;99.90
17701;DHT22;8969;48.576;12.580;2023-02-28T05:07:46;-1.40;99.90
17701;DHT22;8969;48.576;12.580;2023-02-28T05:10:15;-1.40;99.90
17701;DHT22;8969;48.576;12.580;2023-02-28T05:12:43;-1.40;99.90
17701;DHT22;8969;48.576;12.580;2023-02-28T05:15:13;-1.40;99.90
17701;DHT22;8969;48.576;12.580;2023-02-28T05:17:43;-1.40;99.90
17701;DHT22;8969;48.576;12.580;2023-02-28T05:20:11;-1.40;99.90
17701;DHT22;8969;48.576;12.580;2023-02-28T05:22:43;-1.40;99.90
17701;DHT22;8969;48.576;12.580;2023-02-28T05:25:15;-1.40;99.90
17701;DHT22;8969;48.576;12.580;2023-02-28T05:27:43;-1.50;99.90
17701;DHT22;8969;48.576;12.580;2023-02-28T05:30:12;-1.40;99.90
17701;DHT22;8969;48.576;12.580;2023-02-28T05:32:40;-1.50;99.90
17701;DHT22;8969;48.576;12.580;2023-02-28T05:35:12;-1.50;99.90
17701;DHT22;8969;48.576;12.580;2023-02-28T05:37:40;-1.50;99.90
17701;DHT22;8969;48.576;12.580;2023-02-28T05:40:09;-1.40;99.90
17701;DHT22;8969;48.576;12.580;2023-02-28T05:42:38;-1.40;99.90
17701;DHT22;8969;48.576;12.580;2023-02-28T05:45:07;-1.40;99.90
17701;DHT22;8969;48.576;12.580;2023-02-28T05:47:36;-1.50;99.90
17701;DHT22;8969;48.576;12.580;2023-02-28T05:50:05;-1.40;99.90
17701;DHT22;8969;48.576;12.580;2023-02-28T05:52:35;-1.50;99.90
17701;DHT22;8969;48.576;12.580;2023-02-28T05:55:03;-1.40;99.90
17701;DHT22;8969;48.576;12.580;2023-02-28T05:57:31;-1.50;99.90
17701;DHT22;8969;48.576;12.580;2023-02-28T05:59:59;-1.50;99.90
17701;DHT22;8969;48.576;12.580;2023-02-28T06:02:38;-1.40;99.90
17701;DHT22;8969;48.576;12.580;2023-02-28T06:05:10;-1.40;99.90
17701;DHT22;8969;48.576;12.580;2023-02-28T06:07:42;-1.40;99.90
17701;DHT22;8969;48.576;12.580;2023-02-28T06:10:11;-1.40;99.90
17701;DHT22;8969;48.576;12.580;2023-02-28T06:12:39;-1.40;99.90
17701;DHT22;8969;48.576;12.580;2023-02-28T06:15:12;-1.30;99.90
17701;DHT22;8969;48.576;12.580;2023-02-28T06:17:41;-1.30;99.90
17701;DHT22;8969;48.576;12.580;2023-02-28T06:20:10;-1.30;99.90
17701;DHT22;8969;48.576;12.580;2023-02-28T06:22:41;-1.20;99.90
17701;DHT22;8969;48.576;12.580;2023-02-28T06:25:10;-1.30;99.90
17701;DHT22;8969;48.576;12.580;2023-02-28T06:27:38;-1.20;99.90
17701;DHT22;8969;48.576;12.580;2023-02-28T06:30:07;-1.20;99.90
17701;DHT22;8969;48.576;12.580;2023-02-28T06:32:36;-1.10;99.90
17701;DHT22;8969;48.576;12.580;2023-02-28T06:35:04;-1.10;99.90
17701;DHT22;8969;48.576;12.580;2023-02-28T06:37:33;-1.10;99.90
17701;DHT22;8969;48.576;12.580;2023-02-28T06:40:04;-1.00;99.90
17701;DHT22;8969;48.576;12.580;2023-02-28T06:42:34;-1.00;99.90
17701;DHT22;8969;48.576;12.580;2023-02-28T06:45:05;-1.00;99.90
17701;DHT22;8969;48.576;12.580;2023-02-28T06:47:36;-1.00;99.90
17701;DHT22;8969;48.576;12.580;2023-02-28T06:50:06;-0.90;99.90
17701;DHT22;8969;48.576;12.580;2023-02-28T06:52:36;-0.90;99.90
17701;DHT22;8969;48.576;12.580;2023-02-28T06:55:06;-0.80;99.90
17701;DHT22;8969;48.576;12.580;2023-02-28T06:57:36;-0.80;99.90
17701;DHT22;8969;48.576;12.580;2023-02-28T07:00:06;-0.80;99.90
17701;DHT22;8969;48.576;12.580;2023-02-28T07:02:36;-0.70;99.90
17701;DHT22;8969;48.576;12.580;2023-02-28T07:05:05;-0.70;99.90
17701;DHT22;8969;48.576;12.580;2023-02-28T07:07:35;-0.70;99.90
17701;DHT22;8969;48.576;12.580;2023-02-28T07:10:07;-0.60;99.90
17701;DHT22;8969;48.576;12.580;2023-02-28T07:12:39;-0.60;99.90
17701;DHT22;8969;48.576;12.580;2023-02-28T07:15:09;-0.50;99.90
17701;DHT22;8969;48.576;12.580;2023-02-28T07:17:37;-0.50;99.90
17701;DHT22;8969;48.576;12.580;2023-02-28T07:20:06;-0.50;99.90
17701;DHT22;8969;48.576;12.580;2023-02-28T07:22:35;-0.50;99.90
17701;DHT22;8969;48.576;12.580;2023-02-28T07:25:03;-0.50;99.90
17701;DHT22;8969;48.576;12.580;2023-02-28T07:27:33;-0.40;99.90
17701;DHT22;8969;48.576;12.580;2023-02-28T07:30:01;-0.30;99.90
17701;DHT22;8969;48.576;12.580;2023-02-28T07:32:31;-0.30;99.90
17701;DHT22;8969;48.576;12.580;2023-02-28T07:34:59;-0.30;99.90
17701;DHT22;8969;48.576;12.580;2023-02-28T07:37:29;-0.20;99.90
17701;DHT22;8969;48.576;12.580;2023-02-28T07:39:58;-0.20;99.90
17701;DHT22;8969;48.576;12.580;2023-02-28T07:42:26;-0.20;99.90
17701;DHT22;8969;48.576;12.580;2023-02-28T07:45:15;-0.10;99.90
17701;DHT22;8969;48.576;12.580;2023-02-28T07:47:45;-0.10;99.90
17701;DHT22;8969;48.576;12.580;2023-02-28T07:50:15;0.00;99.90
17701;DHT22;8969;48.576;12.580;2023-02-28T07:52:44;0.00;99.90
17701;DHT22;8969;48.576;12.580;2023-02-28T07:55:12;0.10;99.90
17701;DHT22;8969;48.576;12.580;2023-02-28T07:57:43;0.10;99.90
17701;DHT22;8969;48.576;12.580;2023-02-28T08:00:12;0.20;99.90
17701;DHT22;8969;48.576;12.580;2023-02-28T08:02:42;0.20;99.90
17701;DHT22;8969;48.576;12.580;2023-02-28T08:05:10;0.20;99.90
17701;DHT22;8969;48.576;12.580;2023-02-28T08:07:40;0.30;99.90
17701;DHT22;8969;48.576;12.580;2023-02-28T08:10:10;0.30;99.90
17701;DHT22;8969;48.576;12.580;2023-02-28T08:12:38;0.40;99.90
17701;DHT22;8969;48.576;12.580;2023-02-28T08:15:07;0.40;99.90
17701;DHT22;8969;48.576;12.580;2023-02-28T08:17:36;0.40;99.90
17701;DHT22;8969;48.576;12.580;2023-02-28T08:20:08;0.50;99.90
17701;DHT22;8969;48.576;12.580;2023-02-28T08:22:39;0.60;99.90
17701;DHT22;8969;48.576;12.580;2023-02-28T08:25:11;0.50;99.90
17701;DHT22;8969;48.576;12.580;2023-02-28T08:27:39;0.60;99.90
17701;DHT22;8969;48.576;12.580;2023-02-28T08:30:10;0.60;99.90
17701;DHT22;8969;48.576;12.580;2023-02-28T08:32:38;0.60;99.90
17701;DHT22;8969;48.576;12.580;2023-02-28T08:35:10;0.70;99.90
17701;DHT22;8969;48.576;12.580;2023-02-28T08:37:38;0.80;99.90
17701;DHT22;8969;48.576;12.580;2023-02-28T08:40:08;0.90;99.90
17701;DHT22;8969;48.576;12.580;2023-02-28T08:42:38;0.90;99.90
17701;DHT22;8969;48.576;12.580;2023-02-28T08:45:07;0.90;99.90
17701;DHT22;8969;48.576;12.580;2023-02-28T08:47:35;0.90;99.90
17701;DHT22;8969;48.576;12.580;2023-02-28T08:50:06;1.00;99.90
17701;DHT22;8969;48.576;12.580;2023-02-28T08:52:35;1.10;99.90
17701;DHT22;8969;48.576;12.580;2023-02-28T08:55:05;1.10;99.90
17701;DHT22;8969;48.576;12.580;2023-02-28T08:57:33;1.20;99.90
17701;DHT22;8969;48.576;12.580;2023-02-28T09:00:03;1.20;99.90
17701;DHT22;8969;48.576;12.580;2023-02-28T09:02:33;1.40;99.90
17701;DHT22;8969;48.576;12.580;2023-02-28T09:05:01;1.40;99.90
17701;DHT22;8969;48.576;12.580;2023-02-28T09:07:30;1.40;99.90
17701;DHT22;8969;48.576;12.580;2023-02-28T09:10:00;1.50;99.90
17701;DHT22;8969;48.576;12.580;2023-02-28T09:12:32;1.60;99.90
17701;DHT22;8969;48.576;12.580;2023-02-28T09:15:00;1.60;99.90
17701;DHT22;8969;48.576;12.580;2023-02-28T09:17:29;1.60;99.90
17701;DHT22;8969;48.576;12.580;2023-02-28T09:19:57;1.70;99.90
17701;DHT22;8969;48.576;12.580;2023-02-28T09:22:26;1.70;99.90
17701;DHT22;8969;48.576;12.580;2023-02-28T09:24:54;1.70;99.90
17701;DHT22;8969;48.576;12.580;2023-02-28T09:27:24;1.80;99.90
17701;DHT22;8969;48.576;12.580;2023-02-28T09:29:52;1.80;99.90
17701;DHT22;8969;48.576;12.580;2023-02-28T09:32:21;1.90;99.90
17701;DHT22;8969;48.576;12.580;2023-02-28T09:34:49;2.00;99.90
17701;DHT22;8969;48.576;12.580;2023-02-28T09:37:17;2.10;99.90
17701;DHT22;8969;48.576;12.580;2023-02-28T09:39:45;2.20;99.90
17701;DHT22;8969;48.576;12.580;2023-02-28T09:42:21;2.10;99.90
17701;DHT22;8969;48.576;12.580;2023-02-28T09:44:51;2.10;99.90
17701;DHT22;8969;48.576;12.580;2023-02-28T09:47:44;2.30;99.90
17701;DHT22;8969;48.576;12.580;2023-02-28T09:50:21;2.30;99.90
17701;DHT22;8969;48.576;12.580;2023-02-28T09:52:53;2.50;99.90
17701;DHT22;8969;48.576;12.580;2023-02-28T09:55:28;2.70;99.90
17701;DHT22;8969;48.576;12.580;2023-02-28T09:58:14;2.60;99.90
17701;DHT22;8969;48.576;12.580;2023-02-28T10:00:52;2.60;99.90
17701;DHT22;8969;48.576;12.580;2023-02-28T10:03:47;2.70;99.90
17701;DHT22;8969;48.576;12.580;2023-02-28T10:06:20;2.70;99.90
17701;DHT22;8969;48.576;12.580;2023-02-28T10:08:53;2.70;99.90
17701;DHT22;8969;48.576;12.580;2023-02-28T10:11:25;2.90;99.90
17701;DHT22;8969;48.576;12.580;2023-02-28T10:13:58;2.90;99.90
17701;DHT22;8969;48.576;12.580;2023-02-28T10:16:34;3.10;99.90
17701;DHT22;8969;48.576;12.580;2023-02-28T10:19:05;3.10;99.90
17701;DHT22;8969;48.576;12.580;2023-02-28T10:21:36;3.20;99.90
17701;DHT22;8969;48.576;12.580;2023-02-28T10:24:18;3.20;99.90
17701;DHT22;8969;48.576;12.580;2023-02-28T10:26:48;3.20;99.90
17701;DHT22;8969;48.576;12.580;2023-02-28T10:29:19;3.40;99.90
17701;DHT22;8969;48.576;12.580;2023-02-28T10:31:49;3.40;99.90
17701;DHT22;8969;48.576;12.580;2023-02-28T10:34:17;3.50;99.90
17701;DHT22;8969;48.576;12.580;2023-02-28T10:36:45;3.60;99.90
17701;DHT22;8969;48.576;12.580;2023-02-28T10:39:36;3.50;99.90
17701;DHT22;8969;48.576;12.580;2023-02-28T10:42:05;3.50;99.90
17701;DHT22;8969;48.576;12.580;2023-02-28T10:44:45;3.40;99.90
17701;DHT22;8969;48.576;12.580;2023-02-28T10:47:17;3.60;99.90
17701;DHT22;8969;48.576;12.580;2023-02-28T10:49:49;3.70;99.90
17701;DHT22;8969;48.576;12.580;2023-02-28T10:52:33;3.70;99.90
17701;DHT22;8969;48.576;12.580;2023-02-28T10:55:15;3.80;99.90
17701;DHT22;8969;48.576;12.580;2023-02-28T10:57:43;3.90;99.90
17701;DHT22;8969;48.576;12.580;2023-02-28T11:00:16;3.80;99.90
17701;DHT22;8969;48.576;12.580;2023-02-28T11:02:47;3.80;99.90
17701;DHT22;8969;48.576;12.580;2023-02-28T11:05:28;3.80;99.90
17701;DHT22;8969;48.576;12.580;2023-02-28T11:08:04;3.80;99.90
17701;DHT22;8969;48.576;12.580;2023-02-28T11:10:33;3.90;99.90
17701;DHT22;8969;48.576;12.580;2023-02-28T11:13:02;4.00;99.90
17701;DHT22;8969;48.576;12.580;2023-02-28T11:15:32;4.10;99.90
17701;DHT22;8969;48.576;12.580;2023-02-28T11:18:19;4.00;99.90
17701;DHT22;8969;48.576;12.580;2023-02-28T11:20:50;4.00;99.90
17701;DHT22;8969;48.576;12.580;2023-02-28T11:23:19;4.10;99.90
17701;DHT22;8969;48.576;12.580;2023-02-28T11:25:50;4.00;99.90
17701;DHT22;8969;48.576;12.580;2023-02-28T11:28:26;4.00;99.90
17701;DHT22;8969;48.576;12.580;2023-02-28T11:31:04;4.00;99.90
17701;DHT22;8969;48.576;12.580;2023-02-28T11:33:43;4.00;99.90
17701;DHT22;8969;48.576;12.580;2023-02-28T11:36:15;4.10;99.90
17701;DHT22;8969;48.576;12.580;2023-02-28T11:38:48;4.00;99.90
17701;DHT22;8969;48.576;12.580;2023-02-28T11:41:26;4.20;99.90
17701;DHT22;8969;48.576;12.580;2023-02-28T11:44:21;4.30;99.90
17701;DHT22;8969;48.576;12.580;2023-02-28T11:46:56;4.30;99.90
17701;DHT22;8969;48.576;12.580;2023-02-28T11:49:35;4.40;99.90
17701;DHT22;8969;48.576;12.580;2023-02-28T11:52:17;4.40;99.90
17701;DHT22;8969;48.576;12.580;2023-02-28T11:55:01;4.30;99.90
17701;DHT22;8969;48.576;12.580;2023-02-28T11:57:45;4.40;99.90
17701;DHT22;8969;48.576;12.580;2023-02-28T12:00:31;4.50;99.90
17701;DHT22;8969;48.576;12.580;2023-02-28T12:03:16;4.60;99.90
17701;DHT22;8969;48.576;12.580;2023-02-28T12:05:56;4.60;99.90
17701;DHT22;8969;48.576;12.580;2023-02-28T12:08:35;4.60;99.70
17701;DHT22;8969;48.576;12.580;2023-02-28T12:11:14;4.70;99.90
17701;DHT22;8969;48.576;12.580;2023-02-28T12:13:50;4.80;99.90
17701;DHT22;8969;48.576;12.580;2023-02-28T12:16:45;4.70;99.90
17701;DHT22;8969;48.576;12.580;2023-02-28T12:19:20;4.80;99.90
17701;DHT22;8969;48.576;12.580;2023-02-28T12:22:06;4.90;99.90
17701;DHT22;8969;48.576;12.580;2023-02-28T12:24:49;4.90;99.90
17701;DHT22;8969;48.576;12.580;2023-02-28T12:27:23;4.80;99.90
17701;DHT22;8969;48.576;12.580;2023-02-28T12:29:57;4.70;99.30
17701;DHT22;8969;48.576;12.580;2023-02-28T12:32:30;4.80;99.50
17701;DHT22;8969;48.576;12.580;2023-02-28T12:35:02;5.00;99.90
17701;DHT22;8969;48.576;12.580;2023-02-28T12:37:37;5.00;99.90
17701;DHT22;8969;48.576;12.580;2023-02-28T12:40:10;5.10;99.90
17701;DHT22;8969;48.576;12.580;2023-02-28T12:42:41;5.10;99.50
17701;DHT22;8969;48.576;12.580;2023-02-28T12:45:13;5.20;99.80
17701;DHT22;8969;48.576;12.580;2023-02-28T12:47:48;5.20;99.90
17701;DHT22;8969;48.576;12.580;2023-02-28T12:50:18;5.00;99.40
17701;DHT22;8969;48.576;12.580;2023-02-28T12:52:53;5.00;99.50
17701;DHT22;8969;48.576;12.580;2023-02-28T12:55:28;5.00;99.50
17701;DHT22;8969;48.576;12.580;2023-02-28T12:58:08;5.10;99.90
17701;DHT22;8969;48.576;12.580;2023-02-28T13:01:02;5.20;99.90
17701;DHT22;8969;48.576;12.580;2023-02-28T13:03:44;5.20;99.90
17701;DHT22;8969;48.576;12.580;2023-02-28T13:06:38;5.20;99.40
17701;DHT22;8969;48.576;12.580;2023-02-28T13:09:11;5.20;99.20
17701;DHT22;8969;48.576;12.580;2023-02-28T13:11:43;5.10;99.10
17701;DHT22;8969;48.576;12.580;2023-02-28T13:14:22;5.20;99.90
17701;DHT22;8969;48.576;12.580;2023-02-28T13:16:58;5.20;99.80
17701;DHT22;8969;48.576;12.580;2023-02-28T13:19:28;5.20;99.90
17701;DHT22;8969;48.576;12.580;2023-02-28T13:21:58;5.20;99.90
17701;DHT22;8969;48.576;12.580;2023-02-28T13:24:46;5.20;99.40
17701;DHT22;8969;48.576;12.580;2023-02-28T13:27:37;5.20;99.90
17701;DHT22;8969;48.576;12.580;2023-02-28T13:33:25;5.10;99.90
17701;DHT22;8969;48.576;12.580;2023-02-28T13:36:07;5.20;99.80
17701;DHT22;8969;48.576;12.580;2023-02-28T13:38:41;5.30;99.90
17701;DHT22;8969;48.576;12.580;2023-02-28T13:44:24;5.20;99.90
17701;DHT22;8969;48.576;12.580;2023-02-28T13:47:22;5.20;99.20
17701;DHT22;8969;48.576;12.580;2023-02-28T13:49:52;5.10;99.90
17701;DHT22;8969;48.576;12.580;2023-02-28T13:52:24;5.20;99.90
17701;DHT22;8969;48.576;12.580;2023-02-28T13:57:53;5.10;99.90
17701;DHT22;8969;48.576;12.580;2023-02-28T14:00:37;4.90;99.90
17701;DHT22;8969;48.576;12.580;2023-02-28T14:03:18;5.10;99.90
17701;DHT22;8969;48.576;12.580;2023-02-28T14:06:13;5.00;99.80
17701;DHT22;8969;48.576;12.580;2023-02-28T14:08:50;4.90;99.90
17701;DHT22;8969;48.576;12.580;2023-02-28T14:11:32;5.00;99.90
17701;DHT22;8969;48.576;12.580;2023-02-28T14:14:01;5.10;99.90
17701;DHT22;8969;48.576;12.580;2023-02-28T14:16:39;5.00;99.30
17701;DHT22;8969;48.576;12.580;2023-02-28T14:19:12;5.10;99.90
17701;DHT22;8969;48.576;12.580;2023-02-28T14:21:52;5.10;99.90
17701;DHT22;8969;48.576;12.580;2023-02-28T14:24:50;5.10;99.90
17701;DHT22;8969;48.576;12.580;2023-02-28T14:27:29;5.10;99.90
17701;DHT22;8969;48.576;12.580;2023-02-28T14:30:51;5.00;99.90
17701;DHT22;8969;48.576;12.580;2023-02-28T14:33:40;5.00;99.90
17701;DHT22;8969;48.576;12.580;2023-02-28T14:36:14;4.90;99.90
17701;DHT22;8969;48.576;12.580;2023-02-28T14:38:47;4.90;99.90
17701;DHT22;8969;48.576;12.580;2023-02-28T14:41:28;4.90;99.90
17701;DHT22;8969;48.576;12.580;2023-02-28T14:43:59;4.90;99.90
17701;DHT22;8969;48.576;12.580;2023-02-28T14:46:33;4.80;99.90
17701;DHT22;8969;48.576;12.580;2023-02-28T14:49:06;4.70;99.90
17701;DHT22;8969;48.576;12.580;2023-02-28T14:51:35;4.70;99.90
17701;DHT22;8969;48.576;12.580;2023-02-28T14:54:03;4.80;99.90
17701;DHT22;8969;48.576;12.580;2023-02-28T14:56:35;4.70;99.90
17701;DHT22;8969;48.576;12.580;2023-02-28T14:59:24;4.70;99.90
17701;DHT22;8969;48.576;12.580;2023-02-28T15:04:37;4.70;99.90
17701;DHT22;8969;48.576;12.580;2023-02-28T15:07:09;4.80;99.90
17701;DHT22;8969;48.576;12.580;2023-02-28T15:09:37;4.80;99.90
17701;DHT22;8969;48.576;12.580;2023-02-28T15:12:05;4.70;99.90
17701;DHT22;8969;48.576;12.580;2023-02-28T15:14:34;4.60;99.90
17701;DHT22;8969;48.576;12.580;2023-02-28T15:17:11;4.50;99.90
17701;DHT22;8969;48.576;12.580;2023-02-28T15:19:48;4.50;99.90
17701;DHT22;8969;48.576;12.580;2023-02-28T15:22:25;4.40;99.90
17701;DHT22;8969;48.576;12.580;2023-02-28T15:24:56;4.40;99.90
17701;DHT22;8969;48.576;12.580;2023-02-28T15:27:26;4.30;99.90
17701;DHT22;8969;48.576;12.580;2023-02-28T15:29:56;4.30;99.90
17701;DHT22;8969;48.576;12.580;2023-02-28T15:32:28;4.30;99.90
17701;DHT22;8969;48.576;12.580;2023-02-28T15:35:17;4.30;99.90
17701;DHT22;8969;48.576;12.580;2023-02-28T15:37:47;4.20;99.90
17701;DHT22;8969;48.576;12.580;2023-02-28T15:40:22;4.20;99.90
17701;DHT22;8969;48.576;12.580;2023-02-28T15:42:59;4.00;99.90
17701;DHT22;8969;48.576;12.580;2023-02-28T15:45:33;4.00;99.90
17701;DHT22;8969;48.576;12.580;2023-02-28T15:48:05;4.00;99.90
17701;DHT22;8969;48.576;12.580;2023-02-28T15:50:41;4.00;99.90
17701;DHT22;8969;48.576;12.580;2023-02-28T15:53:15;3.90;99.90
17701;DHT22;8969;48.576;12.580;2023-02-28T15:55:43;3.90;99.90
17701;DHT22;8969;48.576;12.580;2023-02-28T15:58:12;3.90;99.90
17701;DHT22;8969;48.576;12.580;2023-02-28T16:00:44;3.80;99.90
17701;DHT22;8969;48.576;12.580;2023-02-28T16:03:24;3.80;99.90
17701;DHT22;8969;48.576;12.580;2023-02-28T16:06:22;3.80;99.90
17701;DHT22;8969;48.576;12.580;2023-02-28T16:08:51;3.70;99.90
17701;DHT22;8969;48.576;12.580;2023-02-28T16:11:21;3.70;99.90
17701;DHT22;8969;48.576;12.580;2023-02-28T16:13:50;3.70;99.90
17701;DHT22;8969;48.576;12.580;2023-02-28T16:16:21;3.60;99.90
17701;DHT22;8969;48.576;12.580;2023-02-28T16:18:51;3.60;99.90
17701;DHT22;8969;48.576;12.580;2023-02-28T16:21:21;3.60;99.90
17701;DHT22;8969;48.576;12.580;2023-02-28T16:23:49;3.50;99.90
17701;DHT22;8969;48.576;12.580;2023-02-28T16:26:22;3.50;99.90
17701;DHT22;8969;48.576;12.580;2023-02-28T16:28:51;3.40;99.90
17701;DHT22;8969;48.576;12.580;2023-02-28T16:31:20;3.40;99.90
17701;DHT22;8969;48.576;12.580;2023-02-28T16:33:48;3.40;99.90